sensor_id;sensor_type;location;lat;lon;timestamp;pressure;altitude;pressure_sealevel;temperature;humidity
74181;BME280;62544;50.826;14.354;2022-09-17T00:03:16;98184.05;;;3.45;93.88
74181;BME280;62544;50.826;14.354;2022-09-17T00:07:16;98183.92;;;3.43;93.72
74181;BME280;62544;50.826;14.354;2022-09-17T00:11:23;98184.52;;;3.41;93.92
74181;BME280;62544;50.826;14.354;2022-09-17T00:15:16;98186.35;;;3.40;94.35
74181;BME280;62544;50.826;14.354;2022-09-17T00:19:17;98187.42;;;3.39;94.28
74181;BME280;62544;50.826;14.354;2022-09-17T00:23:16;98189.59;;;3.41;94.60
74181;BME280;62544;50.826;14.354;2022-09-17T00:27:15;98189.90;;;3.44;94.63
74181;BME280;62544;50.826;14.354;2022-09-17T00:31:15;98191.36;;;3.47;94.50
74181;BME280;62544;50.826;14.354;2022-09-17T00:35:15;98192.16;;;3.48;94.97
74181;BME280;62544;50.826;14.354;2022-09-17T00:39:15;98192.61;;;3.50;95.16
74181;BME280;62544;50.826;14.354;2022-09-17T00:47:20;98194.10;;;3.63;95.23
74181;BME280;62544;50.826;14.354;2022-09-17T00:51:18;98192.43;;;3.71;95.28
74181;BME280;62544;50.826;14.354;2022-09-17T00:55:20;98190.85;;;3.79;94.89
74181;BME280;62544;50.826;14.354;2022-09-17T00:59:16;98188.97;;;3.86;94.56
74181;BME280;62544;50.826;14.354;2022-09-17T01:03:16;98186.83;;;3.91;94.68
74181;BME280;62544;50.826;14.354;2022-09-17T01:07:23;98184.81;;;3.94;94.72
74181;BME280;62544;50.826;14.354;2022-09-17T01:23:20;98183.28;;;4.25;95.82
74181;BME280;62544;50.826;14.354;2022-09-17T01:27:34;98183.58;;;4.38;95.81
74181;BME280;62544;50.826;14.354;2022-09-17T01:31:23;98182.84;;;4.52;95.84
74181;BME280;62544;50.826;14.354;2022-09-17T01:35:20;98181.28;;;4.67;95.66
74181;BME280;62544;50.826;14.354;2022-09-17T01:39:18;98180.65;;;4.80;95.64
74181;BME280;62544;50.826;14.354;2022-09-17T01:47:20;98178.91;;;5.08;95.59
74181;BME280;62544;50.826;14.354;2022-09-17T01:51:16;98178.41;;;5.21;95.57
74181;BME280;62544;50.826;14.354;2022-09-17T01:55:16;98177.17;;;5.34;95.51
74181;BME280;62544;50.826;14.354;2022-09-17T01:59:18;98175.10;;;5.46;95.47
74181;BME280;62544;50.826;14.354;2022-09-17T02:07:18;98169.56;;;5.71;95.37
74181;BME280;62544;50.826;14.354;2022-09-17T02:11:15;98168.47;;;5.83;95.31
74181;BME280;62544;50.826;14.354;2022-09-17T02:15:18;98166.58;;;5.95;95.29
74181;BME280;62544;50.826;14.354;2022-09-17T02:19:26;98165.77;;;6.06;95.26
74181;BME280;62544;50.826;14.354;2022-09-17T02:23:17;98165.64;;;6.18;95.29
74181;BME280;62544;50.826;14.354;2022-09-17T02:27:22;98166.22;;;6.29;95.28
74181;BME280;62544;50.826;14.354;2022-09-17T02:31:15;98168.02;;;6.40;95.43
74181;BME280;62544;50.826;14.354;2022-09-17T02:35:16;98169.56;;;6.51;95.36
74181;BME280;62544;50.826;14.354;2022-09-17T02:39:16;98171.36;;;6.62;95.54
74181;BME280;62544;50.826;14.354;2022-09-17T02:43:33;98171.67;;;6.72;95.46
74181;BME280;62544;50.826;14.354;2022-09-17T02:47:32;98172.08;;;6.83;95.35
74181;BME280;62544;50.826;14.354;2022-09-17T02:51:32;98170.61;;;6.94;95.22
74181;BME280;62544;50.826;14.354;2022-09-17T02:55:22;98168.69;;;7.05;95.23
74181;BME280;62544;50.826;14.354;2022-09-17T02:59:20;98168.06;;;7.16;95.19
74181;BME280;62544;50.826;14.354;2022-09-17T03:07:16;98167.27;;;7.35;95.42
74181;BME280;62544;50.826;14.354;2022-09-17T03:11:16;98165.95;;;7.44;95.49
74181;BME280;62544;50.826;14.354;2022-09-17T03:15:16;98165.31;;;7.54;95.29
74181;BME280;62544;50.826;14.354;2022-09-17T03:19:16;98163.26;;;7.63;95.26
74181;BME280;62544;50.826;14.354;2022-09-17T03:23:16;98161.31;;;7.70;95.18
74181;BME280;62544;50.826;14.354;2022-09-17T03:27:16;98158.71;;;7.77;95.26
74181;BME280;62544;50.826;14.354;2022-09-17T03:31:16;98157.33;;;7.84;95.14
74181;BME280;62544;50.826;14.354;2022-09-17T03:35:16;98156.15;;;7.90;95.02
74181;BME280;62544;50.826;14.354;2022-09-17T03:39:15;98154.92;;;7.95;95.05
74181;BME280;62544;50.826;14.354;2022-09-17T03:43:16;98154.51;;;8.01;95.06
74181;BME280;62544;50.826;14.354;2022-09-17T03:47:16;98153.49;;;8.04;95.12
74181;BME280;62544;50.826;14.354;2022-09-17T03:51:16;98151.22;;;8.08;95.04
74181;BME280;62544;50.826;14.354;2022-09-17T03:55:15;98150.22;;;8.11;95.05
74181;BME280;62544;50.826;14.354;2022-09-17T03:59:16;98149.88;;;8.14;95.11
74181;BME280;62544;50.826;14.354;2022-09-17T04:03:16;98150.31;;;8.16;95.31
74181;BME280;62544;50.826;14.354;2022-09-17T04:07:15;98150.34;;;8.17;95.35
74181;BME280;62544;50.826;14.354;2022-09-17T04:11:16;98150.05;;;8.19;95.16
74181;BME280;62544;50.826;14.354;2022-09-17T04:15:16;98150.30;;;8.22;95.05
74181;BME280;62544;50.826;14.354;2022-09-17T04:19:15;98150.75;;;8.23;94.81
74181;BME280;62544;50.826;14.354;2022-09-17T04:23:16;98150.81;;;8.26;93.87
74181;BME280;62544;50.826;14.354;2022-09-17T04:27:16;98151.15;;;8.29;94.49
74181;BME280;62544;50.826;14.354;2022-09-17T04:31:15;98150.24;;;8.29;94.72
74181;BME280;62544;50.826;14.354;2022-09-17T04:35:15;98150.01;;;8.30;94.09
74181;BME280;62544;50.826;14.354;2022-09-17T04:39:15;98150.37;;;8.32;94.56
74181;BME280;62544;50.826;14.354;2022-09-17T04:43:16;98150.69;;;8.33;94.50
74181;BME280;62544;50.826;14.354;2022-09-17T04:47:15;98151.76;;;8.36;94.28
74181;BME280;62544;50.826;14.354;2022-09-17T04:51:15;98152.04;;;8.40;93.70
74181;BME280;62544;50.826;14.354;2022-09-17T04:55:16;98152.09;;;8.47;93.40
74181;BME280;62544;50.826;14.354;2022-09-17T04:59:15;98152.63;;;8.51;94.13
74181;BME280;62544;50.826;14.354;2022-09-17T05:03:15;98153.38;;;8.55;93.95
74181;BME280;62544;50.826;14.354;2022-09-17T05:07:15;98152.78;;;8.59;92.16
74181;BME280;62544;50.826;14.354;2022-09-17T05:11:15;98155.11;;;8.63;93.37
74181;BME280;62544;50.826;14.354;2022-09-17T05:15:15;98155.05;;;8.67;93.60
74181;BME280;62544;50.826;14.354;2022-09-17T05:19:15;98156.18;;;8.73;93.43
74181;BME280;62544;50.826;14.354;2022-09-17T05:23:15;98156.87;;;8.77;93.12
74181;BME280;62544;50.826;14.354;2022-09-17T05:27:15;98157.06;;;8.81;93.19
74181;BME280;62544;50.826;14.354;2022-09-17T05:31:15;98157.26;;;8.86;93.42
74181;BME280;62544;50.826;14.354;2022-09-17T05:35:16;98156.11;;;8.88;93.80
74181;BME280;62544;50.826;14.354;2022-09-17T05:39:15;98154.36;;;8.90;94.04
74181;BME280;62544;50.826;14.354;2022-09-17T05:43:15;98154.69;;;8.94;93.15
74181;BME280;62544;50.826;14.354;2022-09-17T05:47:15;98154.88;;;8.99;92.86
74181;BME280;62544;50.826;14.354;2022-09-17T05:51:15;98155.10;;;9.05;91.01
74181;BME280;62544;50.826;14.354;2022-09-17T05:55:16;98155.32;;;9.10;92.18
74181;BME280;62544;50.826;14.354;2022-09-17T05:59:15;98155.24;;;9.18;91.17
74181;BME280;62544;50.826;14.354;2022-09-17T06:03:16;98156.37;;;9.24;91.75
74181;BME280;62544;50.826;14.354;2022-09-17T06:07:15;98158.04;;;9.31;91.85
74181;BME280;62544;50.826;14.354;2022-09-17T06:11:15;98158.15;;;9.39;91.48
74181;BME280;62544;50.826;14.354;2022-09-17T06:15:16;98157.36;;;9.48;90.92
74181;BME280;62544;50.826;14.354;2022-09-17T06:19:15;98156.58;;;9.56;90.47
74181;BME280;62544;50.826;14.354;2022-09-17T06:23:15;98156.95;;;9.66;89.83
74181;BME280;62544;50.826;14.354;2022-09-17T06:27:15;98157.53;;;9.77;90.27
74181;BME280;62544;50.826;14.354;2022-09-17T06:31:15;98157.87;;;9.87;89.61
74181;BME280;62544;50.826;14.354;2022-09-17T06:35:15;98158.53;;;9.94;87.09
74181;BME280;62544;50.826;14.354;2022-09-17T06:39:15;98158.11;;;10.03;86.91
74181;BME280;62544;50.826;14.354;2022-09-17T06:43:15;98158.51;;;10.12;87.48
74181;BME280;62544;50.826;14.354;2022-09-17T06:47:15;98159.73;;;10.19;84.49
74181;BME280;62544;50.826;14.354;2022-09-17T06:51:15;98160.78;;;10.24;83.60
74181;BME280;62544;50.826;14.354;2022-09-17T06:55:15;98163.45;;;10.30;84.95
74181;BME280;62544;50.826;14.354;2022-09-17T06:59:15;98166.14;;;10.40;83.93
74181;BME280;62544;50.826;14.354;2022-09-17T07:03:15;98169.22;;;10.50;83.54
74181;BME280;62544;50.826;14.354;2022-09-17T07:07:15;98170.40;;;10.55;85.70
74181;BME280;62544;50.826;14.354;2022-09-17T07:11:15;98171.59;;;10.61;84.18
74181;BME280;62544;50.826;14.354;2022-09-17T07:15:15;98173.75;;;10.67;82.67
74181;BME280;62544;50.826;14.354;2022-09-17T07:19:15;98176.36;;;10.72;82.89
74181;BME280;62544;50.826;14.354;2022-09-17T07:23:15;98178.77;;;10.78;83.34
74181;BME280;62544;50.826;14.354;2022-09-17T07:27:15;98182.86;;;10.87;82.77
74181;BME280;62544;50.826;14.354;2022-09-17T07:31:15;98187.45;;;11.03;83.57
74181;BME280;62544;50.826;14.354;2022-09-17T07:35:15;98190.94;;;11.14;82.27
74181;BME280;62544;50.826;14.354;2022-09-17T07:39:15;98196.82;;;11.21;83.76
74181;BME280;62544;50.826;14.354;2022-09-17T07:43:15;98204.75;;;11.26;85.30
74181;BME280;62544;50.826;14.354;2022-09-17T07:47:15;98213.98;;;11.29;86.14
74181;BME280;62544;50.826;14.354;2022-09-17T07:51:19;98221.00;;;11.33;86.17
74181;BME280;62544;50.826;14.354;2022-09-17T07:55:15;98225.87;;;11.38;85.84
74181;BME280;62544;50.826;14.354;2022-09-17T07:59:16;98230.83;;;11.46;84.13
74181;BME280;62544;50.826;14.354;2022-09-17T08:03:15;98234.39;;;11.52;85.02
74181;BME280;62544;50.826;14.354;2022-09-17T08:07:15;98237.55;;;11.60;85.73
74181;BME280;62544;50.826;14.354;2022-09-17T08:11:17;98240.66;;;11.70;85.67
74181;BME280;62544;50.826;14.354;2022-09-17T08:15:16;98241.83;;;11.81;85.01
74181;BME280;62544;50.826;14.354;2022-09-17T08:19:15;98242.95;;;11.89;84.45
74181;BME280;62544;50.826;14.354;2022-09-17T08:23:15;98244.78;;;11.94;84.75
74181;BME280;62544;50.826;14.354;2022-09-17T08:27:15;98244.26;;;11.97;85.99
74181;BME280;62544;50.826;14.354;2022-09-17T08:31:16;98243.19;;;11.96;86.21
74181;BME280;62544;50.826;14.354;2022-09-17T08:35:15;98241.13;;;11.90;86.85
74181;BME280;62544;50.826;14.354;2022-09-17T08:39:15;98238.47;;;11.86;87.40
74181;BME280;62544;50.826;14.354;2022-09-17T08:43:15;98237.56;;;11.80;87.69
74181;BME280;62544;50.826;14.354;2022-09-17T08:47:25;98237.89;;;11.69;89.22
74181;BME280;62544;50.826;14.354;2022-09-17T08:51:32;98238.76;;;11.57;89.87
74181;BME280;62544;50.826;14.354;2022-09-17T09:07:16;98243.84;;;11.27;89.04
74181;BME280;62544;50.826;14.354;2022-09-17T09:11:16;98245.71;;;11.29;88.94
74181;BME280;62544;50.826;14.354;2022-09-17T09:15:25;98249.24;;;11.32;89.33
74181;BME280;62544;50.826;14.354;2022-09-17T09:19:22;98253.85;;;11.35;89.48
74181;BME280;62544;50.826;14.354;2022-09-17T09:27:21;98259.75;;;11.41;87.32
74181;BME280;62544;50.826;14.354;2022-09-17T09:31:28;98263.30;;;11.32;88.99
74181;BME280;62544;50.826;14.354;2022-09-17T09:35:25;98268.92;;;11.24;88.90
74181;BME280;62544;50.826;14.354;2022-09-17T09:39:26;98271.64;;;11.21;89.57
74181;BME280;62544;50.826;14.354;2022-09-17T09:43:20;98272.49;;;11.25;90.09
74181;BME280;62544;50.826;14.354;2022-09-17T09:47:33;98273.52;;;11.39;86.71
74181;BME280;62544;50.826;14.354;2022-09-17T09:55:34;98278.89;;;11.86;84.18
74181;BME280;62544;50.826;14.354;2022-09-17T09:59:17;98282.22;;;12.11;83.05
74181;BME280;62544;50.826;14.354;2022-09-17T10:03:18;98282.42;;;12.34;80.61
74181;BME280;62544;50.826;14.354;2022-09-17T10:07:15;98283.09;;;12.49;80.01
74181;BME280;62544;50.826;14.354;2022-09-17T10:11:19;98285.04;;;12.67;79.84
74181;BME280;62544;50.826;14.354;2022-09-17T10:15:25;98287.13;;;12.81;75.39
74181;BME280;62544;50.826;14.354;2022-09-17T10:19:19;98288.81;;;12.84;79.24
74181;BME280;62544;50.826;14.354;2022-09-17T10:23:15;98289.90;;;12.85;82.04
74181;BME280;62544;50.826;14.354;2022-09-17T10:27:16;98290.08;;;12.87;78.45
74181;BME280;62544;50.826;14.354;2022-09-17T10:31:15;98287.33;;;12.91;79.73
74181;BME280;62544;50.826;14.354;2022-09-17T10:39:36;98280.91;;;13.23;77.98
74181;BME280;62544;50.826;14.354;2022-09-17T10:43:20;98278.01;;;13.61;76.43
74181;BME280;62544;50.826;14.354;2022-09-17T10:47:24;98273.41;;;14.00;72.48
74181;BME280;62544;50.826;14.354;2022-09-17T10:51:19;98268.16;;;14.33;70.31
74181;BME280;62544;50.826;14.354;2022-09-17T10:55:24;98263.65;;;14.61;68.47
74181;BME280;62544;50.826;14.354;2022-09-17T10:59:28;98260.63;;;14.79;71.89
74181;BME280;62544;50.826;14.354;2022-09-17T11:07:18;98257.31;;;15.01;72.76
74181;BME280;62544;50.826;14.354;2022-09-17T11:15:33;98259.09;;;14.71;69.60
74181;BME280;62544;50.826;14.354;2022-09-17T11:19:23;98261.60;;;14.51;74.31
74181;BME280;62544;50.826;14.354;2022-09-17T11:27:36;98273.00;;;13.82;74.60
74181;BME280;62544;50.826;14.354;2022-09-17T11:31:20;98280.26;;;13.38;79.20
74181;BME280;62544;50.826;14.354;2022-09-17T11:35:19;98287.67;;;12.94;79.03
74181;BME280;62544;50.826;14.354;2022-09-17T11:39:17;98291.14;;;12.60;77.51
74181;BME280;62544;50.826;14.354;2022-09-17T11:43:17;98292.40;;;12.38;78.46
74181;BME280;62544;50.826;14.354;2022-09-17T11:47:25;98292.28;;;12.28;74.81
74181;BME280;62544;50.826;14.354;2022-09-17T11:51:19;98292.61;;;12.28;75.51
74181;BME280;62544;50.826;14.354;2022-09-17T11:59:18;98289.34;;;12.18;77.29
74181;BME280;62544;50.826;14.354;2022-09-17T12:03:33;98287.61;;;12.11;75.38
74181;BME280;62544;50.826;14.354;2022-09-17T12:11:19;98284.70;;;12.38;72.17
74181;BME280;62544;50.826;14.354;2022-09-17T12:15:22;98281.37;;;12.76;71.50
74181;BME280;62544;50.826;14.354;2022-09-17T12:23:17;98272.07;;;14.00;65.13
74181;BME280;62544;50.826;14.354;2022-09-17T12:35:25;98261.21;;;14.25;67.61
74181;BME280;62544;50.826;14.354;2022-09-17T12:43:30;98255.65;;;14.27;66.70
74181;BME280;62544;50.826;14.354;2022-09-17T12:55:29;98263.20;;;13.84;71.36
74181;BME280;62544;50.826;14.354;2022-09-17T12:59:15;98265.22;;;13.50;72.44
74181;BME280;62544;50.826;14.354;2022-09-17T13:03:20;98265.95;;;13.19;72.54
74181;BME280;62544;50.826;14.354;2022-09-17T13:15:27;98268.14;;;12.86;69.11
74181;BME280;62544;50.826;14.354;2022-09-17T13:19:23;98267.99;;;13.01;67.14
74181;BME280;62544;50.826;14.354;2022-09-17T13:23:15;98266.60;;;13.24;66.25
74181;BME280;62544;50.826;14.354;2022-09-17T13:27:22;98265.28;;;13.49;66.99
74181;BME280;62544;50.826;14.354;2022-09-17T13:31:19;98262.68;;;13.73;64.29
74181;BME280;62544;50.826;14.354;2022-09-17T13:39:32;98257.86;;;13.92;66.86
74181;BME280;62544;50.826;14.354;2022-09-17T13:43:16;98253.90;;;14.02;66.43
74181;BME280;62544;50.826;14.354;2022-09-17T13:47:20;98248.83;;;14.25;62.46
74181;BME280;62544;50.826;14.354;2022-09-17T13:59:19;98236.95;;;17.12;47.85
74181;BME280;62544;50.826;14.354;2022-09-17T14:15:34;98223.44;;;16.91;57.09
74181;BME280;62544;50.826;14.354;2022-09-17T14:23:16;98221.28;;;17.16;54.88
74181;BME280;62544;50.826;14.354;2022-09-17T14:31:20;98224.80;;;16.54;62.54
74181;BME280;62544;50.826;14.354;2022-09-17T14:35:17;98227.31;;;16.12;64.99
74181;BME280;62544;50.826;14.354;2022-09-17T14:39:28;98230.69;;;15.77;66.23
74181;BME280;62544;50.826;14.354;2022-09-17T14:43:17;98231.72;;;15.56;64.77
74181;BME280;62544;50.826;14.354;2022-09-17T14:47:16;98231.09;;;15.51;62.03
74181;BME280;62544;50.826;14.354;2022-09-17T14:55:26;98227.85;;;15.45;58.94
74181;BME280;62544;50.826;14.354;2022-09-17T15:03:20;98222.75;;;15.16;57.77
74181;BME280;62544;50.826;14.354;2022-09-17T15:07:16;98219.56;;;15.13;60.43
74181;BME280;62544;50.826;14.354;2022-09-17T15:11:16;98218.21;;;15.09;60.38
74181;BME280;62544;50.826;14.354;2022-09-17T15:15:20;98216.74;;;15.05;57.48
74181;BME280;62544;50.826;14.354;2022-09-17T15:19:26;98216.28;;;15.03;57.42
74181;BME280;62544;50.826;14.354;2022-09-17T15:23:21;98215.17;;;15.13;56.67
74181;BME280;62544;50.826;14.354;2022-09-17T15:27:18;98214.11;;;15.34;52.79
74181;BME280;62544;50.826;14.354;2022-09-17T15:31:17;98213.37;;;15.52;52.91
74181;BME280;62544;50.826;14.354;2022-09-17T15:35:17;98211.61;;;15.57;56.32
74181;BME280;62544;50.826;14.354;2022-09-17T15:39:29;98208.64;;;15.53;59.04
74181;BME280;62544;50.826;14.354;2022-09-17T15:43:21;98206.55;;;15.39;56.75
74181;BME280;62544;50.826;14.354;2022-09-17T15:51:28;98205.77;;;15.09;58.99
74181;BME280;62544;50.826;14.354;2022-09-17T16:07:29;98213.22;;;14.11;60.34
74181;BME280;62544;50.826;14.354;2022-09-17T16:11:17;98218.11;;;13.94;63.29
74181;BME280;62544;50.826;14.354;2022-09-17T16:15:16;98221.73;;;13.79;65.89
74181;BME280;62544;50.826;14.354;2022-09-17T16:19:16;98223.99;;;13.66;64.91
74181;BME280;62544;50.826;14.354;2022-09-17T16:23:16;98226.23;;;13.54;63.18
74181;BME280;62544;50.826;14.354;2022-09-17T16:27:20;98227.26;;;13.42;63.49
74181;BME280;62544;50.826;14.354;2022-09-17T16:31:16;98226.99;;;13.29;66.40
74181;BME280;62544;50.826;14.354;2022-09-17T16:35:17;98226.18;;;13.17;67.67
74181;BME280;62544;50.826;14.354;2022-09-17T16:39:16;98226.20;;;13.03;69.28
74181;BME280;62544;50.826;14.354;2022-09-17T16:43:16;98227.00;;;12.89;71.34
74181;BME280;62544;50.826;14.354;2022-09-17T16:47:16;98228.83;;;12.73;71.84
74181;BME280;62544;50.826;14.354;2022-09-17T16:51:16;98230.75;;;12.59;72.18
74181;BME280;62544;50.826;14.354;2022-09-17T16:55:16;98233.44;;;12.47;73.38
74181;BME280;62544;50.826;14.354;2022-09-17T16:59:16;98236.25;;;12.37;74.77
74181;BME280;62544;50.826;14.354;2022-09-17T17:03:16;98238.81;;;12.28;74.17
74181;BME280;62544;50.826;14.354;2022-09-17T17:07:16;98240.23;;;12.19;75.51
74181;BME280;62544;50.826;14.354;2022-09-17T17:11:16;98240.77;;;12.08;76.42
74181;BME280;62544;50.826;14.354;2022-09-17T17:15:16;98241.78;;;11.94;77.34
74181;BME280;62544;50.826;14.354;2022-09-17T17:19:16;98244.45;;;11.80;78.19
74181;BME280;62544;50.826;14.354;2022-09-17T17:23:16;98247.38;;;11.65;79.64
74181;BME280;62544;50.826;14.354;2022-09-17T17:27:16;98250.80;;;11.48;80.52
74181;BME280;62544;50.826;14.354;2022-09-17T17:31:16;98252.07;;;11.30;80.89
74181;BME280;62544;50.826;14.354;2022-09-17T17:35:16;98254.47;;;11.12;81.82
74181;BME280;62544;50.826;14.354;2022-09-17T17:39:16;98255.14;;;10.96;82.16
74181;BME280;62544;50.826;14.354;2022-09-17T17:43:16;98256.14;;;10.84;82.12
74181;BME280;62544;50.826;14.354;2022-09-17T17:47:16;98256.81;;;10.73;83.12
74181;BME280;62544;50.826;14.354;2022-09-17T17:51:16;98258.88;;;10.63;83.41
74181;BME280;62544;50.826;14.354;2022-09-17T17:55:16;98261.10;;;10.53;83.16
74181;BME280;62544;50.826;14.354;2022-09-17T17:59:16;98263.54;;;10.44;84.20
74181;BME280;62544;50.826;14.354;2022-09-17T18:03:16;98266.71;;;10.35;84.50
74181;BME280;62544;50.826;14.354;2022-09-17T18:07:16;98268.85;;;10.23;85.01
74181;BME280;62544;50.826;14.354;2022-09-17T18:11:16;98273.53;;;10.11;85.45
74181;BME280;62544;50.826;14.354;2022-09-17T18:15:16;98279.02;;;9.98;85.73
74181;BME280;62544;50.826;14.354;2022-09-17T18:19:16;98284.30;;;9.85;86.29
74181;BME280;62544;50.826;14.354;2022-09-17T18:23:16;98290.28;;;9.73;87.23
74181;BME280;62544;50.826;14.354;2022-09-17T18:27:16;98296.51;;;9.61;87.15
74181;BME280;62544;50.826;14.354;2022-09-17T18:31:22;98302.32;;;9.49;87.24
74181;BME280;62544;50.826;14.354;2022-09-17T18:35:16;98307.90;;;9.36;87.97
74181;BME280;62544;50.826;14.354;2022-09-17T18:39:16;98311.08;;;9.23;87.00
74181;BME280;62544;50.826;14.354;2022-09-17T18:43:16;98314.28;;;9.09;88.33
74181;BME280;62544;50.826;14.354;2022-09-17T18:47:16;98316.09;;;8.96;88.49
74181;BME280;62544;50.826;14.354;2022-09-17T18:51:16;98318.59;;;8.85;88.75
74181;BME280;62544;50.826;14.354;2022-09-17T18:55:16;98322.14;;;8.76;88.50
74181;BME280;62544;50.826;14.354;2022-09-17T18:59:16;98324.94;;;8.68;88.15
74181;BME280;62544;50.826;14.354;2022-09-17T19:03:16;98327.75;;;8.63;87.59
74181;BME280;62544;50.826;14.354;2022-09-17T19:07:16;98331.00;;;8.59;86.56
74181;BME280;62544;50.826;14.354;2022-09-17T19:11:16;98333.25;;;8.56;86.59
74181;BME280;62544;50.826;14.354;2022-09-17T19:15:16;98334.48;;;8.53;86.87
74181;BME280;62544;50.826;14.354;2022-09-17T19:19:16;98335.63;;;8.49;86.89
74181;BME280;62544;50.826;14.354;2022-09-17T19:23:16;98338.20;;;8.45;86.88
74181;BME280;62544;50.826;14.354;2022-09-17T19:27:16;98339.81;;;8.42;86.86
74181;BME280;62544;50.826;14.354;2022-09-17T19:31:16;98340.44;;;8.39;86.37
74181;BME280;62544;50.826;14.354;2022-09-17T19:35:16;98339.62;;;8.35;86.17
74181;BME280;62544;50.826;14.354;2022-09-17T19:39:16;98340.00;;;8.31;86.36
74181;BME280;62544;50.826;14.354;2022-09-17T19:43:17;98339.83;;;8.28;86.18
74181;BME280;62544;50.826;14.354;2022-09-17T19:47:16;98338.75;;;8.25;85.92
74181;BME280;62544;50.826;14.354;2022-09-17T19:51:16;98337.53;;;8.24;85.54
74181;BME280;62544;50.826;14.354;2022-09-17T19:55:16;98335.91;;;8.26;85.41
74181;BME280;62544;50.826;14.354;2022-09-17T19:59:16;98336.27;;;8.28;85.23
74181;BME280;62544;50.826;14.354;2022-09-17T20:03:16;98336.22;;;8.32;84.85
74181;BME280;62544;50.826;14.354;2022-09-17T20:07:16;98336.02;;;8.37;84.87
74181;BME280;62544;50.826;14.354;2022-09-17T20:11:16;98335.91;;;8.42;85.03
74181;BME280;62544;50.826;14.354;2022-09-17T20:15:16;98334.16;;;8.47;84.92
74181;BME280;62544;50.826;14.354;2022-09-17T20:19:16;98332.26;;;8.53;85.05
74181;BME280;62544;50.826;14.354;2022-09-17T20:23:16;98329.69;;;8.58;84.91
74181;BME280;62544;50.826;14.354;2022-09-17T20:27:16;98328.74;;;8.63;84.81
74181;BME280;62544;50.826;14.354;2022-09-17T20:31:20;98327.51;;;8.68;83.20
74181;BME280;62544;50.826;14.354;2022-09-17T20:35:16;98326.09;;;8.71;82.56
74181;BME280;62544;50.826;14.354;2022-09-17T20:39:16;98323.74;;;8.74;80.67
74181;BME280;62544;50.826;14.354;2022-09-17T20:43:16;98321.63;;;8.78;78.81
74181;BME280;62544;50.826;14.354;2022-09-17T20:47:16;98319.93;;;8.83;78.32
74181;BME280;62544;50.826;14.354;2022-09-17T20:51:17;98317.36;;;8.87;77.21
74181;BME280;62544;50.826;14.354;2022-09-17T20:55:16;98316.28;;;8.92;75.00
74181;BME280;62544;50.826;14.354;2022-09-17T20:59:16;98317.55;;;9.00;74.79
74181;BME280;62544;50.826;14.354;2022-09-17T21:03:16;98319.69;;;9.08;72.76
74181;BME280;62544;50.826;14.354;2022-09-17T21:07:16;98319.56;;;9.17;72.51
74181;BME280;62544;50.826;14.354;2022-09-17T21:11:16;98318.73;;;9.24;72.19
74181;BME280;62544;50.826;14.354;2022-09-17T21:15:16;98319.16;;;9.31;73.03
74181;BME280;62544;50.826;14.354;2022-09-17T21:19:16;98317.29;;;9.38;72.79
74181;BME280;62544;50.826;14.354;2022-09-17T21:23:20;98315.06;;;9.43;74.08
74181;BME280;62544;50.826;14.354;2022-09-17T21:27:16;98314.48;;;9.48;73.09
74181;BME280;62544;50.826;14.354;2022-09-17T21:31:25;98311.17;;;9.50;73.59
74181;BME280;62544;50.826;14.354;2022-09-17T21:35:16;98308.81;;;9.48;76.27
74181;BME280;62544;50.826;14.354;2022-09-17T21:39:16;98304.35;;;9.45;77.51
74181;BME280;62544;50.826;14.354;2022-09-17T21:43:16;98300.67;;;9.44;78.01
74181;BME280;62544;50.826;14.354;2022-09-17T21:47:16;98298.49;;;9.40;79.16
74181;BME280;62544;50.826;14.354;2022-09-17T21:51:20;98296.91;;;9.35;78.66
74181;BME280;62544;50.826;14.354;2022-09-17T21:55:16;98293.94;;;9.30;79.98
74181;BME280;62544;50.826;14.354;2022-09-17T21:59:16;98292.61;;;9.24;80.68
74181;BME280;62544;50.826;14.354;2022-09-17T22:03:16;98290.06;;;9.17;79.92
74181;BME280;62544;50.826;14.354;2022-09-17T22:07:16;98289.56;;;9.09;81.80
74181;BME280;62544;50.826;14.354;2022-09-17T22:11:19;98288.47;;;9.03;84.07
74181;BME280;62544;50.826;14.354;2022-09-17T22:15:16;98287.30;;;8.98;83.81
74181;BME280;62544;50.826;14.354;2022-09-17T22:19:17;98286.61;;;8.93;80.99
74181;BME280;62544;50.826;14.354;2022-09-17T22:23:16;98287.61;;;8.88;82.70
74181;BME280;62544;50.826;14.354;2022-09-17T22:27:16;98286.55;;;8.83;79.37
74181;BME280;62544;50.826;14.354;2022-09-17T22:31:16;98284.91;;;8.79;78.97
74181;BME280;62544;50.826;14.354;2022-09-17T22:35:16;98283.20;;;8.78;79.38
74181;BME280;62544;50.826;14.354;2022-09-17T22:39:18;98282.56;;;8.78;79.67
74181;BME280;62544;50.826;14.354;2022-09-17T22:43:16;98280.81;;;8.78;80.71
74181;BME280;62544;50.826;14.354;2022-09-17T22:47:16;98279.35;;;8.79;79.94
74181;BME280;62544;50.826;14.354;2022-09-17T22:51:16;98278.16;;;8.81;79.38
74181;BME280;62544;50.826;14.354;2022-09-17T22:55:16;98276.11;;;8.83;79.65
74181;BME280;62544;50.826;14.354;2022-09-17T22:59:16;98274.46;;;8.85;79.90
74181;BME280;62544;50.826;14.354;2022-09-17T23:03:16;98273.74;;;8.87;80.38
74181;BME280;62544;50.826;14.354;2022-09-17T23:07:16;98274.55;;;8.85;79.79
74181;BME280;62544;50.826;14.354;2022-09-17T23:11:17;98274.66;;;8.81;81.57
74181;BME280;62544;50.826;14.354;2022-09-17T23:15:16;98274.52;;;8.76;83.69
74181;BME280;62544;50.826;14.354;2022-09-17T23:19:17;98273.77;;;8.70;83.77
74181;BME280;62544;50.826;14.354;2022-09-17T23:23:16;98272.87;;;8.59;86.47
74181;BME280;62544;50.826;14.354;2022-09-17T23:27:16;98272.05;;;8.49;87.45
74181;BME280;62544;50.826;14.354;2022-09-17T23:31:17;98269.43;;;8.42;88.05
74181;BME280;62544;50.826;14.354;2022-09-17T23:35:16;98266.55;;;8.37;87.96
74181;BME280;62544;50.826;14.354;2022-09-17T23:39:16;98263.98;;;8.36;87.81
74181;BME280;62544;50.826;14.354;2022-09-17T23:43:16;98261.24;;;8.36;87.71